Hazelwood, Pennsylvania
Current Conditions -  °F | °C
As of 12:53 PM on Thursday 23 Oct 2014 (Local Time) from KAGC Reporting Station
Few Clouds Few Clouds  
Wind Chill: 59°   Ceiling: Unl
Heat Index: 59°   Visibility: 10mi
Dew Point: 39°   Wind: 10mph
Humidity: 48%   Direction: 330°NNW
Pressure: 30.08"   Gusts: 18mph
Location:  40.4147°N, 79.9411°W
Report Text: KAGC 231653Z 33009G16KT 10SM FEW050 15/04 A3008 RMK AO2 SLP191 T01500039
Loading
Personal Weather Stations






























Interactive Weather Map
Tropical Storm Tracking
New forecast layout! Learn more

10-Day Weather Forecast

Advertisements
Track Severe Weather on mobile